createdAt,value
2023-01-27T00:05:37.041Z,1.57
2023-01-27T00:11:57.683Z,1.73
2023-01-27T00:17:59.954Z,2.10
2023-01-27T00:24:20.209Z,1.87
2023-01-27T00:30:22.097Z,2.30
2023-01-27T00:36:23.998Z,5.73
2023-01-27T00:42:25.986Z,3.97
2023-01-27T00:48:28.154Z,3.90
2023-01-27T00:54:30.045Z,4.63
2023-01-27T01:00:31.946Z,4.67
2023-01-27T01:06:33.884Z,4.00
2023-01-27T01:12:35.780Z,3.87
2023-01-27T01:18:39.039Z,3.90
2023-01-27T01:24:40.935Z,3.80
2023-01-27T01:30:42.920Z,2.77
2023-01-27T01:36:44.829Z,3.50
2023-01-27T01:43:15.136Z,3.47
2023-01-27T01:49:21.054Z,3.20
2023-01-27T01:55:23.985Z,2.90
2023-01-27T02:01:25.902Z,3.03
2023-01-27T02:07:51.384Z,3.17
2023-01-27T02:13:53.367Z,2.67
2023-01-27T02:20:47.096Z,2.87
2023-01-27T02:26:49.455Z,3.00
2023-01-27T02:32:51.444Z,3.37
2023-01-27T02:38:56.721Z,3.13
2023-01-27T02:44:58.594Z,2.30
2023-01-27T02:51:00.629Z,2.60
2023-01-27T02:57:02.569Z,2.23
2023-01-27T03:03:04.520Z,2.60
2023-01-27T03:09:06.543Z,3.03
2023-01-27T03:15:28.318Z,3.10
2023-01-27T03:21:30.240Z,2.70
2023-01-27T03:27:32.386Z,2.40
2023-01-27T03:33:35.595Z,2.40
2023-01-27T03:39:56.265Z,2.63
2023-01-27T03:46:17.135Z,3.03
2023-01-27T03:52:19.071Z,3.63
2023-01-27T03:58:31.967Z,5.23
2023-01-27T04:04:52.228Z,4.30
2023-01-27T04:11:12.395Z,2.43
2023-01-27T04:17:17.743Z,2.63
2023-01-27T04:23:19.639Z,2.40
2023-01-27T04:29:24.781Z,2.93
2023-01-27T04:35:37.455Z,3.53
2023-01-27T04:41:40.376Z,3.23
2023-01-27T04:47:42.259Z,2.70
2023-01-27T04:53:44.210Z,1.90
2023-01-27T04:59:46.095Z,1.80
2023-01-27T05:05:48.088Z,1.60
2023-01-27T05:11:49.989Z,1.90
2023-01-27T05:17:52.197Z,1.90
2023-01-27T05:23:54.222Z,2.30
2023-01-27T05:29:57.098Z,3.00
2023-01-27T05:36:01.387Z,3.10
2023-01-27T05:42:03.374Z,3.23
2023-01-27T05:48:05.586Z,3.60
2023-01-27T05:54:08.931Z,3.40
2023-01-27T06:00:11.632Z,3.30
2023-01-27T06:06:16.774Z,2.80
2023-01-27T06:12:18.656Z,2.60
2023-01-27T06:18:20.576Z,2.03
2023-01-27T06:24:24.054Z,3.00
2023-01-27T06:30:25.979Z,2.87
2023-01-27T06:36:27.843Z,2.20
2023-01-27T06:42:29.743Z,2.47
2023-01-27T06:48:31.904Z,3.37
2023-01-27T06:54:33.917Z,3.03
2023-01-27T07:00:36.923Z,2.93
2023-01-27T07:06:38.804Z,2.47
2023-01-27T07:12:40.746Z,2.43
2023-01-27T07:18:42.650Z,2.13
2023-01-27T07:24:44.546Z,2.47
2023-01-27T07:30:46.982Z,1.80
2023-01-27T07:36:48.896Z,2.73
2023-01-27T07:42:50.812Z,4.63
2023-01-27T07:48:52.847Z,3.80
2023-01-27T07:54:54.724Z,7.80
2023-01-27T08:00:56.661Z,2.00
2023-01-27T08:06:58.624Z,1.63
2023-01-27T08:13:00.551Z,1.20
2023-01-27T08:19:02.480Z,3.60
2023-01-27T08:25:04.747Z,1.57
2023-01-27T08:31:14.831Z,1.40
2023-01-27T08:37:16.807Z,1.70
2023-01-27T08:43:20.654Z,1.40
2023-01-27T08:49:22.570Z,1.30
2023-01-27T08:55:29.541Z,1.20
2023-01-27T09:01:31.511Z,1.47
2023-01-27T09:07:34.294Z,0.90
2023-01-27T09:13:36.185Z,1.10
2023-01-27T09:19:38.184Z,1.30
2023-01-27T09:25:40.215Z,0.80
2023-01-27T09:31:42.574Z,1.00
2023-01-27T09:37:54.092Z,0.80
2023-01-27T09:44:48.837Z,1.20
2023-01-27T09:51:06.307Z,0.70
2023-01-27T09:57:53.966Z,0.60
2023-01-27T10:04:23.387Z,0.60
2023-01-27T10:11:10.328Z,0.80
2023-01-27T10:17:20.929Z,0.80
2023-01-27T10:23:41.126Z,0.97
2023-01-27T10:29:56.631Z,0.70
2023-01-27T10:36:31.153Z,0.80
2023-01-27T10:42:47.445Z,0.83
2023-01-27T10:49:06.255Z,1.10
2023-01-27T10:55:25.610Z,0.90
2023-01-27T11:01:41.480Z,1.00
2023-01-27T11:07:52.593Z,0.80
2023-01-27T11:14:15.735Z,1.00
2023-01-27T11:20:54.556Z,1.13
2023-01-27T11:27:13.900Z,0.83
2023-01-27T11:33:34.805Z,1.47
2023-01-27T11:39:36.986Z,1.10
2023-01-27T11:45:39.122Z,1.40
2023-01-27T11:51:41.094Z,1.07
2023-01-27T11:58:18.894Z,1.00
2023-01-27T12:04:49.136Z,0.90
2023-01-27T12:10:52.257Z,1.00
2023-01-27T12:16:54.442Z,0.90
2023-01-27T12:23:19.937Z,0.90
2023-01-27T12:29:31.516Z,1.00
2023-01-27T12:35:36.415Z,0.80
2023-01-27T12:41:38.738Z,1.00
2023-01-27T12:47:40.657Z,0.83
2023-01-27T12:53:45.772Z,1.00
2023-01-27T12:59:52.775Z,0.93
2023-01-27T13:05:58.101Z,1.10
2023-01-27T13:12:21.822Z,1.13
2023-01-27T13:18:24.297Z,1.10
2023-01-27T13:24:41.958Z,0.93
2023-01-27T13:30:52.506Z,1.40
2023-01-27T13:37:24.322Z,1.10
2023-01-27T13:43:40.426Z,0.97
2023-01-27T13:49:48.127Z,1.40
2023-01-27T13:56:20.659Z,1.00
2023-01-27T14:02:28.329Z,0.83
2023-01-27T14:08:55.022Z,1.20
2023-01-27T14:15:26.441Z,0.93
2023-01-27T14:21:48.101Z,1.20
2023-01-27T14:28:21.524Z,1.10
2023-01-27T14:35:07.702Z,1.20
2023-01-27T14:41:44.247Z,1.17
2023-01-27T14:48:09.569Z,1.20
2023-01-27T14:54:45.035Z,0.90
2023-01-27T15:01:29.499Z,0.80
2023-01-27T15:08:02.211Z,1.00
2023-01-27T15:14:21.909Z,1.17
2023-01-27T15:20:51.290Z,1.33
2023-01-27T15:26:54.324Z,1.30
2023-01-27T15:32:56.729Z,1.27
2023-01-27T15:39:10.734Z,1.30
2023-01-27T15:45:39.292Z,1.60
2023-01-27T15:51:41.364Z,1.20
2023-01-27T15:57:43.692Z,1.27
2023-01-27T16:03:48.847Z,1.40
2023-01-27T16:09:52.539Z,1.53
2023-01-27T16:16:18.989Z,1.50
2023-01-27T16:22:23.522Z,2.00
2023-01-27T16:28:29.373Z,1.80
2023-01-27T16:34:41.430Z,1.40
2023-01-27T16:41:23.939Z,1.53
2023-01-27T16:47:39.727Z,2.00
2023-01-27T16:53:51.310Z,23.87
2023-01-27T16:59:54.084Z,26.20
2023-01-27T17:05:57.920Z,12.50
2023-01-27T17:12:00.055Z,3.10
2023-01-27T17:18:08.354Z,3.40
2023-01-27T17:24:37.766Z,1.50
2023-01-27T17:30:42.216Z,3.20
2023-01-27T17:37:16.822Z,2.37
2023-01-27T17:43:45.138Z,3.03
2023-01-27T17:49:50.103Z,4.07
2023-01-27T17:55:53.642Z,4.10
2023-01-27T18:01:59.665Z,5.43
2023-01-27T18:08:03.771Z,5.23
2023-01-27T18:14:17.974Z,5.07
2023-01-27T18:20:33.297Z,3.70
2023-01-27T18:26:38.107Z,3.50
2023-01-27T18:32:46.063Z,4.47
2023-01-27T18:38:49.929Z,2.90
2023-01-27T18:44:53.431Z,2.80
2023-01-27T18:50:55.327Z,3.17
2023-01-27T18:56:57.219Z,2.33
2023-01-27T19:03:00.960Z,2.70
2023-01-27T19:09:04.880Z,2.57
2023-01-27T19:15:08.081Z,3.40
2023-01-27T19:21:15.905Z,2.50
2023-01-27T19:27:19.141Z,2.47
2023-01-27T19:33:24.764Z,2.80
2023-01-27T19:39:27.770Z,3.00
2023-01-27T19:45:29.971Z,2.57
2023-01-27T19:51:33.115Z,2.80
2023-01-27T19:57:35.693Z,2.73
2023-01-27T20:03:37.595Z,4.83
2023-01-27T20:09:39.525Z,4.87
2023-01-27T20:15:42.099Z,1.80
2023-01-27T20:21:45.850Z,2.40
2023-01-27T20:27:51.162Z,2.57
2023-01-27T20:33:53.160Z,3.13
2023-01-27T20:39:55.139Z,1.83
2023-01-27T20:46:02.095Z,1.70
2023-01-27T20:52:04.013Z,2.00
2023-01-27T20:58:06.289Z,2.37
2023-01-27T21:04:08.174Z,2.50
2023-01-27T21:10:11.512Z,2.40
2023-01-27T21:16:14.330Z,1.80
2023-01-27T21:22:16.341Z,2.37
2023-01-27T21:28:18.504Z,2.07
2023-01-27T21:34:20.503Z,2.87
2023-01-27T21:40:23.523Z,3.50
2023-01-27T21:46:25.476Z,2.10
2023-01-27T21:52:33.582Z,2.17
2023-01-27T21:58:36.219Z,2.17
2023-01-27T22:05:06.124Z,1.87
2023-01-27T22:11:12.498Z,1.70
2023-01-27T22:17:14.587Z,1.80
2023-01-27T22:23:18.971Z,1.40
2023-01-27T22:29:20.911Z,1.40
2023-01-27T22:35:22.834Z,1.90
2023-01-27T22:41:24.754Z,1.53
2023-01-27T22:47:26.689Z,1.50
2023-01-27T22:53:28.571Z,1.30
2023-01-27T22:59:30.472Z,1.67
2023-01-27T23:05:32.564Z,1.50
2023-01-27T23:11:34.478Z,1.57
2023-01-27T23:17:36.479Z,1.80
2023-01-27T23:23:38.395Z,2.20
2023-01-27T23:29:40.303Z,1.87
2023-01-27T23:35:42.537Z,1.70
2023-01-27T23:41:44.461Z,2.00
2023-01-27T23:47:46.348Z,2.37
2023-01-27T23:53:49.237Z,1.93
2023-01-27T23:59:51.103Z,2.00
